Aeroporto :
LOGIN :

Iscrizione | Disclaimer

   EN    FR    IT 

 










Sommario :    VFR   VFR Marginale   IFR   IFR Intensivo   IFR Molto Intensivo
Visibilità : 
Base nubi : 
>= 8 km
>= 3000ft
5 / 8 km
1000 / 3000 ft
1500m / 5 km
500 / 1000 ft
800 / 1500m
200 / 500 ft
< 800m
< 200 ft
Simboli :   Temporali  Nebbia  Neve Forte  Precipitazioni Forti  Vento > 20 kt
SIGMETs :   Varie  Temporali  Ghiacco  Turbolenza  Onda orograficha  Ceneri Vulcaniche






- Altitudine del aeroporto : 1367 ft
- Codice IATA : FDH


EDNY - Friedrichshafen

ULTIMO METAR :
  • 272220Z AUTO 25010KT 9999 // BKN045/// OVC064/// 06/04 Q1008

METARs OBSOLETI :
  • 272150Z 26009KT 230V300 9999 FEW051 OVC063 07/02 Q1009
  • 272120Z VRB02KT 9999 BKN049 BKN057 05/02 Q1009
  • 272050Z 23005KT CAVOK 06/02 Q1009
  • 272020Z 20003KT 160V250 CAVOK 05/02 Q1009
  • 271950Z 21003KT 180V270 CAVOK 05/02 Q1009
  • 271920Z 00000KT CAVOK 04/02 Q1009

TAF TAF EDNY
Valido dal 27 a 18 ore il 28 a 18 ore UTC


271700Z 2718/2818 VRB03KT 9999 BKN030
TEMPO 2721/2804 4000 RADZ
BECMG 2804/2807 26015G30KT
TEMPO 2804/2810 26020G30KT 4000 SHRA BKN025CB
TEMPO 2810/2818 27020G45KT 2500 SHSNRA BKN020CB
PROB30
TEMPO 2811/2818 TSSNRA BKN012CB



MetMap, La meteo Aeronautica in un colpo d'occhio ! - Copyright ORBIFLY Dicembre 2007 - Disclaimer

ORBIFLY MET'MAP TEAM :

Programmazione e sviluppo : Alexandra Zaïnal
Concezione : Baudouin d'Aumeries
Aiuto per la programmazione : Marc-Olivier Méhu
Supporto tecnico e logistico : Manuel Goepfert
Aiuto per la traduzione : Arnaldo La Scala

Contatto : metmap@orbifly.com




FONTI E CREDITI :

   NOAA